Lake Delton, Wisconsin
Current Conditions -  °F | °C
As of 6:15 AM on Monday 20 Oct 2014 (Local Time) from KDLL Reporting Station
Clear Clear  
Wind Chill: 44°   Ceiling: Unl
Heat Index: 48°   Visibility: 10mi
Dew Point: 42°   Wind: 9mph
Humidity: 78%   Direction: 320°NW
Pressure: 29.84"   Gusts: 16mph
Location:  43.6°N, 89.79°W
Report Text: KDLL 201115Z AUTO 32008G14KT 10SM CLR 09/05 A2984 RMK AO2 T00900053
Loading
Personal Weather Stations






























Interactive Weather Map
Tropical Storm Tracking
New forecast layout! Learn more

10-Day Weather Forecast

Advertisements
Track Severe Weather on mobile